createdAt,value
2019-06-26T00:03:09.376Z,35.12
2019-06-26T00:08:18.549Z,35.22
2019-06-26T00:13:26.508Z,35.37
2019-06-26T00:18:31.039Z,35.49
2019-06-26T00:23:36.583Z,35.52
2019-06-26T00:28:42.047Z,35.53
2019-06-26T00:33:47.594Z,35.62
2019-06-26T00:38:52.821Z,35.74
2019-06-26T00:43:57.971Z,35.87
2019-06-26T00:49:03.153Z,35.97
2019-06-26T00:54:08.393Z,36.14
2019-06-26T00:59:13.896Z,36.25
2019-06-26T01:04:21.954Z,36.39
2019-06-26T01:09:27.391Z,36.46
2019-06-26T01:14:32.955Z,36.57
2019-06-26T01:19:38.137Z,36.64
2019-06-26T01:24:43.407Z,36.85
2019-06-26T01:29:49.459Z,37.07
2019-06-26T01:34:55.690Z,37.22
2019-06-26T01:40:01.296Z,37.30
2019-06-26T01:45:24.297Z,37.45
2019-06-26T01:50:47.382Z,37.58
2019-06-26T01:56:10.225Z,37.69
2019-06-26T02:01:39.516Z,37.79
2019-06-26T02:07:02.912Z,37.90
2019-06-26T02:12:26.674Z,38.00
2019-06-26T02:17:50.144Z,38.03
2019-06-26T02:23:15.858Z,38.21
2019-06-26T02:28:39.252Z,38.42
2019-06-26T02:34:02.317Z,38.56
2019-06-26T02:39:11.562Z,38.70
2019-06-26T02:44:17.029Z,38.81
2019-06-26T02:49:22.177Z,38.99
2019-06-26T02:54:27.333Z,39.02
2019-06-26T02:59:32.574Z,39.02
2019-06-26T03:04:37.804Z,39.42
2019-06-26T03:09:42.984Z,39.52
2019-06-26T03:14:48.163Z,39.45
2019-06-26T03:19:53.368Z,39.45
2019-06-26T03:25:16.909Z,39.49
2019-06-26T03:30:40.298Z,39.65
2019-06-26T03:36:05.805Z,39.92
2019-06-26T03:41:28.932Z,40.27
2019-06-26T03:46:52.569Z,40.27
2019-06-26T03:52:15.601Z,40.26
2019-06-26T03:57:38.598Z,40.28
2019-06-26T04:03:01.417Z,40.58
2019-06-26T04:08:36.230Z,40.68
2019-06-26T04:13:59.323Z,40.97
2019-06-26T04:19:22.740Z,41.19
2019-06-26T04:24:46.199Z,41.19
2019-06-26T04:29:51.543Z,41.45
2019-06-26T04:34:56.689Z,41.45
2019-06-26T04:40:02.410Z,41.32
2019-06-26T04:45:08.512Z,41.11
2019-06-26T04:50:13.895Z,41.16
2019-06-26T04:55:20.521Z,41.57
2019-06-26T05:00:26.113Z,41.86
2019-06-26T05:05:39.527Z,41.97
2019-06-26T05:10:38.551Z,42.39
2019-06-26T05:15:43.761Z,42.61
2019-06-26T05:20:48.904Z,42.95
2019-06-26T05:25:54.446Z,43.01
2019-06-26T05:30:59.592Z,43.22
2019-06-26T05:36:23.308Z,43.32
2019-06-26T05:41:46.159Z,43.08
2019-06-26T05:47:09.817Z,43.01
2019-06-26T05:52:33.039Z,42.69
2019-06-26T05:57:56.775Z,42.41
2019-06-26T06:03:20.315Z,42.29
2019-06-26T06:08:43.378Z,42.25
2019-06-26T06:14:07.708Z,42.13
2019-06-26T06:19:31.195Z,42.08
2019-06-26T06:24:54.354Z,42.05
2019-06-26T06:30:17.619Z,41.98
2019-06-26T06:35:41.059Z,41.94
2019-06-26T06:41:04.668Z,42.10
2019-06-26T06:46:10.057Z,42.08
2019-06-26T06:51:15.204Z,42.01
2019-06-26T06:56:20.426Z,41.79
2019-06-26T07:01:25.666Z,41.61
2019-06-26T07:06:31.085Z,41.70
2019-06-26T07:11:36.290Z,41.77
2019-06-26T07:16:41.708Z,41.79
2019-06-26T07:21:46.919Z,41.43
2019-06-26T07:26:52.349Z,41.34
2019-06-26T07:31:57.926Z,41.33
2019-06-26T07:37:03.201Z,41.11
2019-06-26T07:42:08.417Z,41.06
2019-06-26T07:47:23.197Z,40.94
2019-06-26T07:52:21.918Z,40.92
2019-06-26T07:57:27.385Z,40.92
2019-06-26T08:02:32.941Z,40.70
2019-06-26T08:07:38.847Z,40.54
2019-06-26T08:12:44.281Z,40.55
2019-06-26T08:17:59.845Z,40.43
2019-06-26T08:22:56.589Z,40.19
2019-06-26T08:28:02.105Z,39.75
2019-06-26T08:33:07.569Z,39.11
2019-06-26T08:38:15.577Z,38.95
2019-06-26T08:43:19.810Z,38.77
2019-06-26T08:48:39.054Z,38.02
2019-06-26T08:53:32.417Z,37.67
2019-06-26T08:58:37.987Z,37.32
2019-06-26T09:03:43.434Z,36.63
2019-06-26T09:08:48.574Z,36.15
2019-06-26T09:13:54.057Z,35.67
2019-06-26T09:18:59.197Z,35.69
2019-06-26T09:24:04.695Z,35.62
2019-06-26T09:29:10.154Z,35.20
2019-06-26T09:34:15.361Z,34.43
2019-06-26T09:39:20.586Z,34.30
2019-06-26T09:44:26.140Z,33.63
2019-06-26T09:49:31.598Z,33.72
2019-06-26T09:54:36.808Z,34.17
2019-06-26T09:59:42.030Z,33.76
2019-06-26T10:04:47.182Z,32.80
2019-06-26T10:09:52.638Z,32.72
2019-06-26T10:14:58.103Z,32.34
2019-06-26T10:20:04.427Z,32.06
2019-06-26T10:25:11.376Z,32.32
2019-06-26T10:30:17.465Z,31.71
2019-06-26T10:35:22.874Z,31.70
2019-06-26T10:40:28.391Z,31.47
2019-06-26T10:45:36.157Z,31.15
2019-06-26T10:50:49.363Z,30.05
2019-06-26T10:55:47.961Z,29.84
2019-06-26T11:00:53.179Z,30.15
2019-06-26T11:05:58.585Z,30.18
2019-06-26T11:11:03.787Z,30.29
2019-06-26T11:16:08.926Z,29.95
2019-06-26T11:21:14.365Z,29.65
2019-06-26T11:26:19.515Z,29.84
2019-06-26T11:31:24.726Z,29.53
2019-06-26T11:36:30.099Z,29.54
2019-06-26T11:41:35.257Z,29.73
2019-06-26T11:46:40.391Z,29.23
2019-06-26T11:51:45.830Z,29.21
2019-06-26T11:56:51.059Z,28.53
2019-06-26T12:01:56.614Z,28.70
2019-06-26T12:07:02.026Z,28.76
2019-06-26T12:12:07.179Z,28.47
2019-06-26T12:17:12.641Z,28.11
2019-06-26T12:22:18.105Z,28.27
2019-06-26T12:27:23.497Z,27.87
2019-06-26T12:32:30.090Z,27.75
2019-06-26T12:37:38.086Z,27.92
2019-06-26T12:42:42.260Z,27.46
2019-06-26T12:47:47.646Z,26.99
2019-06-26T12:52:53.166Z,25.75
2019-06-26T12:58:12.656Z,26.36
2019-06-26T13:03:05.681Z,26.49
2019-06-26T13:08:10.820Z,25.62
2019-06-26T13:13:15.965Z,25.59
2019-06-26T13:18:21.446Z,24.67
2019-06-26T13:23:26.887Z,24.06
2019-06-26T13:28:32.144Z,23.59
2019-06-26T13:33:37.550Z,23.87
2019-06-26T13:38:42.760Z,23.20
2019-06-26T13:43:47.915Z,23.28
2019-06-26T13:48:53.130Z,23.41
2019-06-26T13:53:58.274Z,22.97
2019-06-26T13:59:05.254Z,22.73
2019-06-26T14:04:10.592Z,23.30
2019-06-26T14:09:16.008Z,22.94
2019-06-26T14:14:23.194Z,22.90
2019-06-26T14:19:28.422Z,22.69
2019-06-26T14:24:33.992Z,22.29
2019-06-26T14:29:39.140Z,22.91
2019-06-26T14:34:44.705Z,22.77
2019-06-26T14:39:50.165Z,23.08
2019-06-26T14:44:55.362Z,22.78
2019-06-26T14:50:00.626Z,22.98
2019-06-26T14:55:07.224Z,22.76
2019-06-26T15:00:13.286Z,22.52
2019-06-26T15:05:19.034Z,22.25
2019-06-26T15:10:24.161Z,21.84
2019-06-26T15:15:29.348Z,21.71
2019-06-26T15:20:34.559Z,21.91
2019-06-26T15:25:40.073Z,21.60
2019-06-26T15:30:45.556Z,21.64
2019-06-26T15:35:51.808Z,21.52
2019-06-26T15:40:57.280Z,21.03
2019-06-26T15:46:02.853Z,20.50
2019-06-26T15:51:08.337Z,20.89
2019-06-26T15:56:13.604Z,20.78
2019-06-26T16:01:19.083Z,20.66
2019-06-26T16:06:24.611Z,20.63
2019-06-26T16:11:30.237Z,20.71
2019-06-26T16:16:37.281Z,20.41
2019-06-26T16:21:42.661Z,20.57
2019-06-26T16:26:48.491Z,20.11
2019-06-26T16:31:53.984Z,20.32
2019-06-26T16:37:00.622Z,20.20
2019-06-26T16:42:05.762Z,20.38
2019-06-26T16:47:10.917Z,20.51
2019-06-26T16:52:16.674Z,20.38
2019-06-26T16:57:21.890Z,20.03
2019-06-26T17:02:27.105Z,19.90
2019-06-26T17:07:32.360Z,20.16
2019-06-26T17:12:37.970Z,20.16
2019-06-26T17:17:43.476Z,20.50
2019-06-26T17:23:04.045Z,20.21
2019-06-26T17:27:56.656Z,20.00
2019-06-26T17:33:01.905Z,20.40
2019-06-26T17:38:07.055Z,20.47
2019-06-26T17:43:13.087Z,20.09
2019-06-26T17:48:18.680Z,20.26
2019-06-26T17:53:23.756Z,20.18
2019-06-26T17:58:29.203Z,20.37
2019-06-26T18:03:34.708Z,20.24
2019-06-26T18:08:39.924Z,20.51
2019-06-26T18:13:45.164Z,20.57
2019-06-26T18:18:50.586Z,20.66
2019-06-26T18:23:57.082Z,20.57
2019-06-26T18:29:02.225Z,20.73
2019-06-26T18:34:07.471Z,20.89
2019-06-26T18:39:12.654Z,20.97
2019-06-26T18:44:17.834Z,21.09
2019-06-26T18:49:23.282Z,21.50
2019-06-26T18:54:28.514Z,21.56
2019-06-26T18:59:33.692Z,22.06
2019-06-26T19:04:39.129Z,22.65
2019-06-26T19:09:44.347Z,23.08
2019-06-26T19:14:49.844Z,22.90
2019-06-26T19:19:54.982Z,23.25
2019-06-26T19:25:00.391Z,23.54
2019-06-26T19:30:09.490Z,23.81
2019-06-26T19:35:19.202Z,24.14
2019-06-26T19:40:24.119Z,24.50
2019-06-26T19:45:28.960Z,25.07
2019-06-26T19:50:34.171Z,25.37
2019-06-26T19:55:39.391Z,25.76
2019-06-26T20:00:44.716Z,26.21
2019-06-26T20:05:49.926Z,26.48
2019-06-26T20:10:55.394Z,27.10
2019-06-26T20:16:00.594Z,27.41
2019-06-26T20:21:05.811Z,27.38
2019-06-26T20:26:10.959Z,27.42
2019-06-26T20:31:16.114Z,27.60
2019-06-26T20:36:21.646Z,27.97
2019-06-26T20:41:26.803Z,27.98
2019-06-26T20:46:32.246Z,28.17
2019-06-26T20:51:37.714Z,28.33
2019-06-26T20:56:42.878Z,28.36
2019-06-26T21:01:48.333Z,28.65
2019-06-26T21:06:54.009Z,28.50
2019-06-26T21:11:59.781Z,28.65
2019-06-26T21:17:05.389Z,28.76
2019-06-26T21:22:10.934Z,28.77
2019-06-26T21:27:17.299Z,28.52
2019-06-26T21:32:22.543Z,28.58
2019-06-26T21:37:28.049Z,28.60
2019-06-26T21:42:33.616Z,28.41
2019-06-26T21:47:39.181Z,28.42
2019-06-26T21:52:44.334Z,28.40
2019-06-26T21:57:51.387Z,28.31
2019-06-26T22:03:14.783Z,28.20
2019-06-26T22:08:21.802Z,28.20
2019-06-26T22:13:28.897Z,28.38
2019-06-26T22:18:34.107Z,28.46
2019-06-26T22:23:39.254Z,29.05
2019-06-26T22:28:44.395Z,29.31
2019-06-26T22:33:49.531Z,29.48
2019-06-26T22:38:54.678Z,28.58
2019-06-26T22:44:00.150Z,28.13
2019-06-26T22:49:06.662Z,27.90
2019-06-26T22:54:12.151Z,27.88
2019-06-26T22:59:17.574Z,27.84
2019-06-26T23:04:23.159Z,28.27
2019-06-26T23:09:28.634Z,28.21
2019-06-26T23:14:33.771Z,28.08
2019-06-26T23:19:39.024Z,28.50
2019-06-26T23:24:44.488Z,29.20
2019-06-26T23:29:49.652Z,29.48
2019-06-26T23:34:54.852Z,29.32
2019-06-26T23:40:00.504Z,28.97
2019-06-26T23:45:07.796Z,29.86
2019-06-26T23:50:13.222Z,30.03
2019-06-26T23:55:19.640Z,30.11
